Time;durP1;ratioP1;P1;durP2;ratioP2;P2;SDS_P1;SDS_P2;PMS_P1;PMS_P2;Temp;Humidity;BMP_temperature;BMP_pressure;BME280_temperature;BME280_humidity;BME280_pressure;Samples;Min_cycle;Max_cycle;Signal;HPM_P1;HPM_P2
2023/06/29 00:00:15;;;;;;;0.85;0.80;;;26.30;42.30;;;;;;5002228;28;20445;-62
2023/06/29 00:02:41;;;;;;;1.20;0.95;;;26.30;42.20;;;;;;4999721;28;20026;-63
2023/06/29 00:05:08;;;;;;;1.33;0.90;;;26.20;42.20;;;;;;5001509;28;20478;-62
2023/06/29 00:07:35;;;;;;;1.25;0.75;;;26.30;42.30;;;;;;4999669;28;20026;-63
2023/06/29 00:10:00;;;;;;;1.35;0.88;;;26.20;42.20;;;;;;5000844;28;20549;-62
2023/06/29 00:12:27;;;;;;;1.17;0.90;;;26.20;42.20;;;;;;5003127;28;20026;-62
2023/06/29 00:14:53;;;;;;;1.05;0.80;;;26.20;42.20;;;;;;5001286;28;20585;-63
2023/06/29 00:17:19;;;;;;;0.98;0.80;;;26.20;42.30;;;;;;5003354;28;20026;-63
2023/06/29 00:19:47;;;;;;;1.25;0.80;;;26.20;42.30;;;;;;5002615;28;20041;-63
2023/06/29 00:22:14;;;;;;;1.42;0.95;;;26.20;42.30;;;;;;5015074;28;20414;-63
2023/06/29 00:24:43;;;;;;;1.08;0.80;;;26.20;42.30;;;;;;5001549;28;20061;-62
2023/06/29 00:27:12;;;;;;;1.15;0.85;;;26.20;42.30;;;;;;5000716;28;20076;-63
2023/06/29 00:29:42;;;;;;;0.88;0.77;;;26.20;42.30;;;;;;5001128;28;20041;-62
2023/06/29 00:32:10;;;;;;;1.35;0.88;;;26.20;42.80;;;;;;5001760;28;20513;-62
2023/06/29 00:34:37;;;;;;;0.80;0.80;;;26.20;42.30;;;;;;4998551;28;20041;-62
2023/06/29 00:37:03;;;;;;;1.00;0.80;;;26.20;42.30;;;;;;5000754;28;20093;-62
2023/06/29 00:39:28;;;;;;;0.90;0.80;;;26.20;42.40;;;;;;5001441;28;20030;-62
2023/06/29 00:41:55;;;;;;;0.93;0.77;;;26.10;42.20;;;;;;5001637;28;20387;-62
2023/06/29 00:44:21;;;;;;;1.05;0.90;;;26.10;42.20;;;;;;5002259;28;20389;-62
2023/06/29 00:46:49;;;;;;;1.15;0.80;;;26.20;42.30;;;;;;4999098;28;20022;-62
2023/06/29 00:49:15;;;;;;;1.13;0.88;;;26.10;42.30;;;;;;4998652;28;20394;-62
2023/06/29 00:51:41;;;;;;;1.30;0.80;;;26.20;42.30;;;;;;5000790;28;20027;-62
2023/06/29 00:54:07;;;;;;;1.02;0.80;;;26.10;42.30;;;;;;4998458;28;20035;-61
2023/06/29 00:56:34;;;;;;;1.20;0.82;;;26.10;42.30;;;;;;5000587;28;20057;-64
2023/06/29 00:59:00;;;;;;;1.30;0.80;;;26.10;42.30;;;;;;4999182;28;20041;-61
2023/06/29 01:01:27;;;;;;;0.90;0.75;;;26.20;42.40;;;;;;5000327;28;20486;-62
2023/06/29 01:03:55;;;;;;;0.95;0.80;;;26.10;42.30;;;;;;5001615;28;20027;-62
2023/06/29 01:06:29;;;;;;;0.80;0.80;;;26.10;42.40;;;;;;5000050;28;20042;-62
2023/06/29 01:09:05;;;;;;;0.90;0.80;;;26.10;42.40;;;;;;5003061;28;20410;-62
2023/06/29 01:11:32;;;;;;;1.42;0.98;;;26.10;42.40;;;;;;5000304;28;20837;-62
2023/06/29 01:14:01;;;;;;;0.80;0.73;;;26.10;42.40;;;;;;5001167;28;20057;-62
2023/06/29 01:16:28;;;;;;;1.50;0.90;;;26.10;42.40;;;;;;5001473;28;20030;-63
2023/06/29 01:18:56;;;;;;;1.33;0.80;;;26.10;42.40;;;;;;4999112;28;20160;-62
2023/06/29 01:21:22;;;;;;;1.08;0.90;;;26.10;42.40;;;;;;5001617;28;20028;-63
2023/06/29 01:23:53;;;;;;;1.58;0.90;;;26.10;42.40;;;;;;4999433;28;20038;-62
2023/06/29 01:26:19;;;;;;;1.52;0.80;;;26.10;42.40;;;;;;5001145;28;20112;-62
2023/06/29 01:28:48;;;;;;;1.23;0.82;;;26.10;42.40;;;;;;4998375;28;20505;-61
2023/06/29 01:31:14;;;;;;;0.95;0.80;;;26.10;42.50;;;;;;5001215;28;20056;-63
2023/06/29 01:33:40;;;;;;;0.90;0.77;;;26.10;42.50;;;;;;4998273;28;20026;-63
2023/06/29 01:36:41;;;;;;;1.00;0.80;;;26.10;42.40;;;;;;5007066;28;20034;-63
2023/06/29 01:39:16;;;;;;;0.80;0.80;;;26.10;42.40;;;;;;5000625;28;20046;-62
2023/06/29 01:41:43;;;;;;;0.90;0.80;;;26.00;42.40;;;;;;5002058;28;20584;-62
2023/06/29 01:44:14;;;;;;;0.90;0.80;;;26.00;42.40;;;;;;5000335;28;20022;-62
2023/06/29 01:46:40;;;;;;;0.98;0.80;;;26.00;42.40;;;;;;5000636;28;20656;-63
2023/06/29 01:49:06;;;;;;;0.80;0.70;;;26.00;42.40;;;;;;4998011;28;20034;-61
2023/06/29 01:51:32;;;;;;;1.20;0.77;;;26.00;42.40;;;;;;5000636;28;20029;-63
2023/06/29 01:53:58;;;;;;;0.80;0.70;;;26.00;42.40;;;;;;4998896;28;20037;-63
2023/06/29 01:56:23;;;;;;;1.00;0.80;;;26.00;42.90;;;;;;4999814;28;20398;-63
2023/06/29 01:58:49;;;;;;;1.00;0.90;;;26.00;42.40;;;;;;5000433;28;20030;-63
2023/06/29 02:01:15;;;;;;;1.10;0.80;;;26.00;42.40;;;;;;5001571;28;20406;-62
2023/06/29 02:03:41;;;;;;;1.25;0.80;;;26.00;42.50;;;;;;4997803;28;20038;-62
2023/06/29 02:06:07;;;;;;;1.25;0.82;;;26.00;42.50;;;;;;5000095;28;20034;-62
2023/06/29 02:08:34;;;;;;;1.00;0.82;;;25.90;42.40;;;;;;4999144;28;20026;-62
2023/06/29 02:11:00;;;;;;;1.17;0.80;;;26.00;42.50;;;;;;5003917;28;20034;-62
2023/06/29 02:13:26;;;;;;;1.27;0.95;;;26.00;42.50;;;;;;4998359;28;20105;-62
2023/06/29 02:15:52;;;;;;;0.90;0.80;;;25.90;42.40;;;;;;5002729;28;20342;-62
2023/06/29 02:18:17;;;;;;;1.20;0.82;;;26.00;42.50;;;;;;4997880;28;20027;-63
2023/06/29 02:20:43;;;;;;;1.10;0.85;;;26.00;42.50;;;;;;4996411;28;20065;-62
2023/06/29 02:23:08;;;;;;;0.75;0.70;;;26.00;42.50;;;;;;4999214;28;20045;-64
2023/06/29 02:25:34;;;;;;;1.05;0.80;;;25.90;42.40;;;;;;4998245;28;20030;-62
2023/06/29 02:28:00;;;;;;;0.98;0.70;;;25.90;42.40;;;;;;4998071;28;20573;-62
2023/06/29 02:30:25;;;;;;;1.20;0.88;;;25.90;42.40;;;;;;4999447;28;20034;-62
2023/06/29 02:32:51;;;;;;;0.80;0.77;;;25.90;42.40;;;;;;4998706;28;20117;-63
2023/06/29 02:35:16;;;;;;;1.73;0.80;;;25.90;42.40;;;;;;4999313;28;20145;-63
2023/06/29 02:37:42;;;;;;;1.10;0.82;;;25.90;42.40;;;;;;4996296;28;20046;-62
2023/06/29 02:40:08;;;;;;;1.00;0.88;;;25.90;42.50;;;;;;5000365;28;20372;-62
2023/06/29 02:42:34;;;;;;;1.17;0.88;;;25.90;42.40;;;;;;5000930;28;20467;-62
2023/06/29 02:44:59;;;;;;;0.85;0.80;;;25.90;42.40;;;;;;4999043;28;20156;-62
2023/06/29 02:47:25;;;;;;;1.00;0.70;;;25.90;42.50;;;;;;5004732;28;20461;-63
2023/06/29 02:49:50;;;;;;;0.88;0.80;;;25.90;42.50;;;;;;4997407;28;20045;-62
2023/06/29 02:52:16;;;;;;;0.80;0.80;;;25.90;42.40;;;;;;4998559;28;20022;-63
2023/06/29 02:54:42;;;;;;;0.88;0.70;;;25.90;42.40;;;;;;5000344;28;20105;-63
2023/06/29 02:57:07;;;;;;;0.80;0.80;;;25.90;42.50;;;;;;4998041;28;20386;-62
2023/06/29 02:59:34;;;;;;;1.27;0.80;;;25.80;42.40;;;;;;4997888;28;20072;-62
2023/06/29 03:01:59;;;;;;;1.13;0.90;;;25.90;42.50;;;;;;4997309;28;20034;-62
2023/06/29 03:04:25;;;;;;;0.88;0.68;;;25.90;42.50;;;;;;4994373;28;20095;-63
2023/06/29 03:06:50;;;;;;;1.02;0.80;;;25.80;42.40;;;;;;4998583;28;20036;-61
2023/06/29 03:09:16;;;;;;;0.95;0.80;;;25.80;42.40;;;;;;5000356;28;20034;-63
2023/06/29 03:11:42;;;;;;;1.20;0.80;;;25.80;42.40;;;;;;5001537;28;20393;-63
2023/06/29 03:14:07;;;;;;;1.00;0.85;;;25.80;42.40;;;;;;4996760;28;20734;-63
2023/06/29 03:16:33;;;;;;;0.90;0.80;;;25.80;42.40;;;;;;4997160;28;20034;-62
2023/06/29 03:18:58;;;;;;;0.85;0.80;;;25.80;42.40;;;;;;5000603;28;20041;-62
2023/06/29 03:21:24;;;;;;;1.15;0.90;;;25.80;42.50;;;;;;5002698;28;20386;-62
2023/06/29 03:23:49;;;;;;;0.75;0.70;;;25.80;42.40;;;;;;5003565;28;20030;-63
2023/06/29 03:26:15;;;;;;;0.80;0.80;;;25.80;42.50;;;;;;5004030;28;20038;-63
2023/06/29 03:28:41;;;;;;;0.77;0.77;;;25.80;42.50;;;;;;5004363;28;20494;-62
2023/06/29 03:31:06;;;;;;;1.00;0.80;;;25.80;42.50;;;;;;5000446;28;20054;-62
2023/06/29 03:33:32;;;;;;;0.73;0.60;;;25.80;42.40;;;;;;5003624;28;20064;-64
2023/06/29 03:35:57;;;;;;;1.02;0.80;;;25.80;42.50;;;;;;5000047;28;20038;-64
2023/06/29 03:38:23;;;;;;;0.98;0.88;;;25.80;42.50;;;;;;5003259;28;20038;-64
2023/06/29 03:40:49;;;;;;;0.80;0.80;;;25.80;42.50;;;;;;5001285;28;20033;-65
2023/06/29 03:43:14;;;;;;;0.88;0.80;;;25.80;42.50;;;;;;5000711;28;20038;-64
2023/06/29 03:45:40;;;;;;;0.88;0.80;;;25.70;42.40;;;;;;5005934;28;20561;-64
2023/06/29 03:48:05;;;;;;;1.00;0.80;;;25.70;42.40;;;;;;5003142;28;20508;-63
2023/06/29 03:50:31;;;;;;;0.90;0.80;;;25.80;42.50;;;;;;5001669;28;20119;-64
2023/06/29 03:52:57;;;;;;;0.95;0.80;;;25.80;42.60;;;;;;5002215;28;20312;-65
2023/06/29 03:55:24;;;;;;;1.00;0.80;;;25.70;42.50;;;;;;5001254;28;20468;-64
2023/06/29 03:57:50;;;;;;;1.70;0.90;;;25.70;42.20;;;;;;5002550;28;20358;-66
2023/06/29 04:00:16;;;;;;;1.00;0.80;;;25.70;41.90;;;;;;5002254;28;20037;-64
2023/06/29 04:02:41;;;;;;;1.45;1.00;;;25.70;41.50;;;;;;5001768;28;20034;-64
2023/06/29 04:05:08;;;;;;;1.58;0.93;;;25.60;41.20;;;;;;5000761;28;20032;-65
2023/06/29 04:07:34;;;;;;;1.63;1.00;;;25.60;41.00;;;;;;5002015;28;20429;-65
2023/06/29 04:10:00;;;;;;;2.67;0.95;;;25.60;40.80;;;;;;5001727;28;20030;-65
2023/06/29 04:12:25;;;;;;;1.77;0.98;;;25.60;40.80;;;;;;5000812;28;20030;-65
2023/06/29 04:14:51;;;;;;;1.48;1.00;;;25.60;40.60;;;;;;5001437;28;20026;-64
2023/06/29 04:17:16;;;;;;;2.38;1.20;;;25.50;40.60;;;;;;4999182;28;20038;-63
2023/06/29 04:19:42;;;;;;;1.40;1.00;;;25.50;41.10;;;;;;5000224;28;20038;-64
2023/06/29 04:22:08;;;;;;;1.70;1.10;;;25.50;40.50;;;;;;5001981;28;20045;-65
2023/06/29 04:24:33;;;;;;;1.80;1.20;;;25.50;40.40;;;;;;5004860;28;20029;-65
2023/06/29 04:27:00;;;;;;;1.73;1.10;;;25.50;40.40;;;;;;5000931;28;20417;-65
2023/06/29 04:29:26;;;;;;;1.42;1.10;;;25.40;40.40;;;;;;5001714;28;20513;-65
2023/06/29 04:31:54;;;;;;;1.50;1.10;;;25.40;41.10;;;;;;5002969;28;20117;-64
2023/06/29 04:34:20;;;;;;;1.83;1.15;;;25.40;40.60;;;;;;5001061;28;20056;-65
2023/06/29 04:36:46;;;;;;;1.77;1.23;;;25.40;40.70;;;;;;4998251;28;20034;-65
2023/06/29 04:39:13;;;;;;;2.05;1.00;;;25.40;40.70;;;;;;5002912;28;20145;-65
2023/06/29 04:41:40;;;;;;;1.63;1.20;;;25.40;40.80;;;;;;5002430;28;20621;-65
2023/06/29 04:44:08;;;;;;;2.65;1.20;;;25.40;41.30;;;;;;5000313;28;20462;-65
2023/06/29 04:46:40;;;;;;;3.10;1.10;;;25.30;40.80;;;;;;5002318;28;20038;-65
2023/06/29 04:49:07;;;;;;;2.33;1.10;;;25.40;41.00;;;;;;5000784;28;20072;-65
2023/06/29 04:51:37;;;;;;;2.33;1.20;;;25.30;40.90;;;;;;4999513;28;20124;-64
2023/06/29 04:54:06;;;;;;;2.00;1.10;;;25.30;41.10;;;;;;5000000;28;20030;-65
2023/06/29 04:56:32;;;;;;;2.33;1.10;;;25.30;41.10;;;;;;5000561;28;20478;-65
2023/06/29 04:58:58;;;;;;;2.33;1.13;;;25.30;41.30;;;;;;5001944;28;20034;-64
2023/06/29 05:01:24;;;;;;;2.75;1.20;;;25.20;41.30;;;;;;5001869;28;20022;-63
2023/06/29 05:03:49;;;;;;;1.60;1.00;;;25.30;41.50;;;;;;5000797;28;20343;-62
2023/06/29 05:06:15;;;;;;;1.55;1.00;;;25.20;41.50;;;;;;4997338;28;20084;-63
2023/06/29 05:08:41;;;;;;;1.90;1.30;;;25.20;41.60;;;;;;4999192;28;20045;-63
2023/06/29 05:11:06;;;;;;;1.63;1.20;;;25.20;41.70;;;;;;5000901;28;20112;-64
2023/06/29 05:13:35;;;;;;;2.80;1.30;;;25.20;41.90;;;;;;5002124;28;20504;-64
2023/06/29 05:16:02;;;;;;;2.92;1.40;;;25.10;42.00;;;;;;5000985;28;20552;-63
2023/06/29 05:18:28;;;;;;;2.08;1.27;;;25.20;42.20;;;;;;4997343;28;20097;-63
2023/06/29 05:20:53;;;;;;;1.83;1.10;;;25.10;42.30;;;;;;4998810;28;20042;-64
2023/06/29 05:23:19;;;;;;;2.75;1.30;;;25.10;42.40;;;;;;4998693;28;20034;-64
2023/06/29 05:25:44;;;;;;;1.40;1.10;;;25.10;42.50;;;;;;4999612;28;20109;-63
2023/06/29 05:28:11;;;;;;;2.20;1.42;;;25.10;43.10;;;;;;5001121;28;20032;-63
2023/06/29 05:30:37;;;;;;;2.38;1.30;;;25.10;42.60;;;;;;4999017;28;20034;-63
2023/06/29 05:33:03;;;;;;;1.95;1.20;;;25.10;42.80;;;;;;4999996;28;20101;-63
2023/06/29 05:35:31;;;;;;;2.30;1.30;;;25.10;43.00;;;;;;4997407;28;20044;-63
2023/06/29 05:37:57;;;;;;;1.77;1.13;;;25.10;43.10;;;;;;5000690;28;20383;-63
2023/06/29 05:40:22;;;;;;;2.20;1.40;;;25.10;43.10;;;;;;4999207;28;20100;-63
2023/06/29 05:42:48;;;;;;;3.10;1.40;;;25.10;43.30;;;;;;5000164;28;20555;-62
2023/06/29 05:45:14;;;;;;;3.05;1.42;;;25.10;43.30;;;;;;4997611;28;20035;-62
2023/06/29 05:47:39;;;;;;;3.25;1.40;;;25.00;43.30;;;;;;4999273;28;20104;-64
2023/06/29 05:50:06;;;;;;;2.97;1.38;;;25.10;43.50;;;;;;4998503;28;20026;-63
2023/06/29 05:52:33;;;;;;;2.00;1.27;;;25.10;43.50;;;;;;5000805;28;20034;-63
2023/06/29 05:54:59;;;;;;;2.10;1.30;;;25.00;43.50;;;;;;5001507;28;20032;-63
2023/06/29 05:57:25;;;;;;;2.47;1.50;;;25.00;43.50;;;;;;5002499;28;20444;-63
2023/06/29 05:59:51;;;;;;;1.80;1.17;;;25.00;43.60;;;;;;5001629;28;20421;-63
2023/06/29 06:02:17;;;;;;;2.10;1.40;;;25.00;43.70;;;;;;4999998;28;20022;-63
2023/06/29 06:04:42;;;;;;;1.95;1.35;;;25.00;43.80;;;;;;4998390;28;20030;-63
2023/06/29 06:07:08;;;;;;;2.22;1.27;;;25.00;44.00;;;;;;5003670;28;20031;-63
2023/06/29 06:09:34;;;;;;;2.28;1.38;;;25.00;44.00;;;;;;4999387;28;20034;-63
2023/06/29 06:11:59;;;;;;;2.78;1.40;;;25.00;44.00;;;;;;4998363;28;20061;-63
2023/06/29 06:14:25;;;;;;;2.33;1.40;;;25.00;44.10;;;;;;5003282;28;20025;-63
2023/06/29 06:16:50;;;;;;;2.15;1.40;;;25.00;44.40;;;;;;5008670;28;20473;-63
2023/06/29 06:19:16;;;;;;;2.17;1.48;;;25.00;44.10;;;;;;5010219;28;20026;-64
2023/06/29 06:21:42;;;;;;;2.05;1.40;;;25.10;44.10;;;;;;5012644;28;20038;-63
2023/06/29 06:24:08;;;;;;;2.22;1.50;;;25.10;44.10;;;;;;5014075;28;20037;-63
2023/06/29 06:26:33;;;;;;;2.72;1.52;;;25.10;44.00;;;;;;5006302;28;20025;-61
2023/06/29 06:28:59;;;;;;;3.58;1.40;;;25.10;43.90;;;;;;5001331;28;20034;-63
2023/06/29 06:31:25;;;;;;;1.70;1.27;;;25.10;43.90;;;;;;5002135;28;20093;-63
2023/06/29 06:33:56;;;;;;;2.55;1.40;;;25.10;44.10;;;;;;5014852;28;20041;-63
2023/06/29 06:36:22;;;;;;;2.25;1.48;;;25.20;44.10;;;;;;5006198;28;20454;-63
2023/06/29 06:38:48;;;;;;;3.38;1.45;;;25.10;44.00;;;;;;5002973;28;20525;-64
2023/06/29 06:41:14;;;;;;;2.78;1.60;;;25.10;43.90;;;;;;5014665;28;20034;-63
2023/06/29 06:43:40;;;;;;;2.50;1.42;;;25.20;44.00;;;;;;5003339;28;20049;-63
2023/06/29 06:46:05;;;;;;;3.22;1.77;;;25.20;43.90;;;;;;5001303;28;20026;-64
2023/06/29 06:48:31;;;;;;;2.50;1.33;;;25.20;43.90;;;;;;5004704;28;20045;-62
2023/06/29 06:50:56;;;;;;;2.10;1.35;;;25.20;43.90;;;;;;4998172;28;20027;-63
2023/06/29 06:53:22;;;;;;;3.20;1.42;;;25.20;44.00;;;;;;4997125;28;20478;-63
2023/06/29 06:55:48;;;;;;;2.10;1.40;;;25.20;43.90;;;;;;4996281;28;20053;-64
2023/06/29 06:58:13;;;;;;;2.55;1.40;;;25.30;44.00;;;;;;4998618;28;20100;-63
2023/06/29 07:00:39;;;;;;;1.92;1.25;;;25.30;44.00;;;;;;4997495;28;20073;-64
2023/06/29 07:03:05;;;;;;;2.00;1.30;;;25.30;44.10;;;;;;4998997;28;20018;-63
2023/06/29 07:05:31;;;;;;;2.03;1.30;;;25.30;44.20;;;;;;4998608;28;20040;-63
2023/06/29 07:07:56;;;;;;;2.17;1.40;;;25.30;44.40;;;;;;4998174;28;20044;-62
2023/06/29 07:10:22;;;;;;;3.08;1.30;;;25.30;44.30;;;;;;4997605;28;20384;-64
2023/06/29 07:12:47;;;;;;;2.15;1.40;;;25.30;44.20;;;;;;4998896;28;20122;-63
2023/06/29 07:15:13;;;;;;;1.70;1.20;;;25.40;44.30;;;;;;4997324;28;20073;-64
2023/06/29 07:17:38;;;;;;;2.17;1.30;;;25.40;44.40;;;;;;4999461;28;20751;-63
2023/06/29 07:20:06;;;;;;;2.90;1.35;;;25.40;44.20;;;;;;4996912;28;20034;-63
2023/06/29 07:22:32;;;;;;;2.88;1.55;;;25.40;44.20;;;;;;4996837;28;20022;-63
2023/06/29 07:24:58;;;;;;;2.47;1.40;;;25.40;44.10;;;;;;4997670;28;20022;-63
2023/06/29 07:27:24;;;;;;;2.38;1.40;;;25.40;44.10;;;;;;4999149;28;20467;-64
2023/06/29 07:29:50;;;;;;;3.25;1.50;;;25.40;44.10;;;;;;5013457;28;20042;-63
2023/06/29 07:32:15;;;;;;;1.95;1.40;;;25.40;44.10;;;;;;5012124;28;20033;-64
2023/06/29 07:34:41;;;;;;;2.20;1.45;;;25.40;44.10;;;;;;5011217;28;20115;-64
2023/06/29 07:37:07;;;;;;;1.98;1.20;;;25.50;44.20;;;;;;4999462;28;20037;-64
2023/06/29 07:39:33;;;;;;;2.97;1.50;;;25.50;44.30;;;;;;5000318;28;20073;-64
2023/06/29 07:41:58;;;;;;;2.67;1.50;;;25.50;44.20;;;;;;5001119;28;20073;-64
2023/06/29 07:44:24;;;;;;;2.50;1.30;;;25.40;44.20;;;;;;5010821;28;20021;-63
2023/06/29 07:46:50;;;;;;;2.42;1.23;;;25.50;44.20;;;;;;5006329;28;20030;-63
2023/06/29 07:49:15;;;;;;;2.58;1.40;;;25.50;44.20;;;;;;5009568;28;20081;-63
2023/06/29 07:51:41;;;;;;;2.45;1.45;;;25.50;44.00;;;;;;5008561;28;20034;-63
2023/06/29 07:54:08;;;;;;;1.90;1.30;;;25.50;44.00;;;;;;5001569;28;20105;-64
2023/06/29 07:56:34;;;;;;;2.40;1.45;;;25.50;44.00;;;;;;4997411;28;20026;-64
2023/06/29 07:58:59;;;;;;;2.60;1.20;;;25.50;44.00;;;;;;4997792;28;20448;-64
2023/06/29 08:01:25;;;;;;;2.45;1.40;;;25.50;44.00;;;;;;4997278;28;20142;-63
2023/06/29 08:03:51;;;;;;;2.38;1.40;;;25.50;44.10;;;;;;5000259;28;20035;-64
2023/06/29 08:06:17;;;;;;;2.50;1.50;;;25.60;44.20;;;;;;5002520;28;20053;-64
2023/06/29 08:08:42;;;;;;;1.67;1.17;;;25.60;44.10;;;;;;4997295;28;20736;-64
2023/06/29 08:11:12;;;;;;;2.03;1.40;;;25.60;44.00;;;;;;5000534;28;20112;-63
2023/06/29 08:13:38;;;;;;;1.58;1.20;;;25.60;44.00;;;;;;5002944;28;20030;-63
2023/06/29 08:16:04;;;;;;;2.88;1.30;;;25.70;44.00;;;;;;5000871;28;20022;-63
2023/06/29 08:18:29;;;;;;;1.45;1.10;;;25.60;44.00;;;;;;5003451;28;20504;-63
2023/06/29 08:20:55;;;;;;;1.85;1.10;;;25.70;44.00;;;;;;4999702;28;20105;-63
2023/06/29 08:23:21;;;;;;;2.10;1.20;;;25.70;44.10;;;;;;4999947;28;20112;-64
2023/06/29 08:25:46;;;;;;;1.88;1.10;;;25.70;44.00;;;;;;5001813;28;20582;-63
2023/06/29 08:28:12;;;;;;;2.15;1.27;;;25.70;44.60;;;;;;5003312;28;20491;-63
2023/06/29 08:30:38;;;;;;;2.13;1.05;;;25.70;44.00;;;;;;5001806;23;20533;-71
2023/06/29 08:33:03;;;;;;;1.98;1.20;;;25.70;44.10;;;;;;4962953;28;20022;-71
2023/06/29 08:35:29;;;;;;;1.83;1.30;;;25.70;44.00;;;;;;4981517;28;20435;-71
2023/06/29 08:37:54;;;;;;;2.03;1.33;;;25.70;43.90;;;;;;4979151;28;20065;-71
2023/06/29 08:40:21;;;;;;;2.85;1.40;;;25.70;43.90;;;;;;4982322;28;20043;-72
2023/06/29 08:42:47;;;;;;;1.77;1.20;;;25.70;43.90;;;;;;4982960;28;20022;-71
2023/06/29 08:45:13;;;;;;;2.28;1.25;;;25.70;43.80;;;;;;4981307;28;20092;-73
2023/06/29 08:47:42;;;;;;;2.45;1.20;;;25.70;43.80;;;;;;4982612;28;20113;-71
2023/06/29 08:50:10;;;;;;;2.13;1.23;;;25.80;43.90;;;;;;4981548;28;20513;-70
2023/06/29 08:52:36;;;;;;;2.17;1.13;;;25.80;43.80;;;;;;4980332;28;20657;-72
2023/06/29 08:55:03;;;;;;;2.45;1.40;;;25.80;43.80;;;;;;4982371;28;20037;-69
2023/06/29 08:57:32;;;;;;;1.98;1.20;;;25.80;43.70;;;;;;4974714;28;20030;-68
2023/06/29 09:00:01;;;;;;;1.92;1.30;;;25.80;43.80;;;;;;4984228;28;20027;-69
2023/06/29 09:02:27;;;;;;;;;;;25.80;43.80;;;;;;4969648;28;20478;-68
2023/06/29 09:04:53;;;;;;;2.28;1.30;;;25.90;43.80;;;;;;4980422;28;19929;-69
2023/06/29 09:07:18;;;;;;;1.95;1.20;;;25.90;43.80;;;;;;4978162;28;20364;-70
2023/06/29 09:09:44;;;;;;;1.35;1.00;;;25.90;43.80;;;;;;4982334;28;20109;-72
2023/06/29 09:12:10;;;;;;;1.65;1.08;;;25.90;43.80;;;;;;4983159;28;20018;-72
2023/06/29 09:14:43;;;;;;;1.85;1.02;;;25.90;43.80;;;;;;4981246;28;20518;-70
2023/06/29 09:17:14;;;;;;;1.60;1.02;;;25.90;43.70;;;;;;4981174;28;20419;-71
2023/06/29 09:19:42;;;;;;;2.63;1.25;;;25.90;43.70;;;;;;4982073;28;20037;-71
2023/06/29 09:22:08;;;;;;;2.75;1.30;;;25.90;43.70;;;;;;4979256;28;20026;-69
2023/06/29 09:24:34;;;;;;;1.70;1.10;;;25.90;43.70;;;;;;4964900;28;20022;-72
2023/06/29 09:27:01;;;;;;;2.20;1.02;;;25.90;43.70;;;;;;4979217;28;20331;-70
2023/06/29 09:29:27;;;;;;;1.95;1.15;;;26.00;43.90;;;;;;4981085;28;20121;-68
2023/06/29 09:31:59;;;;;;;1.45;1.08;;;26.00;43.80;;;;;;4978642;28;20162;-68
2023/06/29 09:34:26;;;;;;;1.65;1.23;;;26.00;43.80;;;;;;4981080;28;20474;-70
2023/06/29 09:36:52;;;;;;;1.45;1.10;;;26.00;43.80;;;;;;4980622;28;20030;-70
2023/06/29 09:39:19;;;;;;;1.92;1.25;;;26.00;43.80;;;;;;4966108;28;20633;-68
2023/06/29 09:41:47;;;;;;;2.28;1.25;;;26.00;43.70;;;;;;4964456;28;20031;-68
2023/06/29 09:44:15;;;;;;;1.67;1.20;;;26.00;43.70;;;;;;4982491;28;20030;-71
2023/06/29 09:46:41;;;;;;;1.70;1.17;;;26.00;43.70;;;;;;4978238;28;20715;-73
2023/06/29 09:49:10;;;;;;;2.00;1.20;;;26.00;43.70;;;;;;4978868;28;20031;-68
2023/06/29 09:51:35;;;;;;;1.27;1.10;;;26.00;43.60;;;;;;4978662;28;20041;-71
2023/06/29 09:54:04;;;;;;;1.75;1.20;;;26.00;43.70;;;;;;4978991;28;20034;-72
2023/06/29 09:56:33;;;;;;;1.92;1.10;;;26.10;43.80;;;;;;4980996;28;20494;-72
2023/06/29 09:59:00;;;;;;;;;;;26.00;43.60;;;;;;4970605;28;20046;-72
2023/06/29 10:01:28;;;;;;;1.95;1.05;;;26.10;43.70;;;;;;4980501;28;20080;-72
2023/06/29 10:03:54;;;;;;;2.05;1.17;;;26.10;43.70;;;;;;4980893;28;20376;-73
2023/06/29 10:06:30;;;;;;;1.40;1.00;;;26.10;44.20;;;;;;4981169;28;20031;-74
2023/06/29 10:08:58;;;;;;;1.65;1.13;;;26.10;43.70;;;;;;4979113;28;20034;-71
2023/06/29 10:11:31;;;;;;;1.33;1.10;;;26.10;43.70;;;;;;4962818;28;20467;-71
2023/06/29 10:14:01;;;;;;;1.58;1.08;;;26.10;43.60;;;;;;4979200;28;20042;-73
2023/06/29 10:16:29;;;;;;;1.63;1.10;;;26.20;43.70;;;;;;4966224;28;20033;-70
2023/06/29 10:19:01;;;;;;;1.48;1.02;;;26.20;43.70;;;;;;4979664;28;20482;-69
2023/06/29 10:21:27;;;;;;;1.58;1.00;;;26.20;43.70;;;;;;4978773;28;20116;-68
2023/06/29 10:23:54;;;;;;;2.42;1.08;;;26.20;43.70;;;;;;4977653;28;20022;-73
2023/06/29 10:26:21;;;;;;;1.20;1.00;;;26.20;43.70;;;;;;4961992;28;20023;-71
2023/06/29 10:28:46;;;;;;;1.20;1.00;;;26.20;43.70;;;;;;4980742;28;20037;-71
2023/06/29 10:31:19;;;;;;;1.70;1.30;;;26.20;43.60;;;;;;4970751;28;20490;-69
2023/06/29 10:33:49;;;;;;;1.50;1.02;;;26.20;44.20;;;;;;4978247;28;20026;-70
2023/06/29 10:36:16;;;;;;;1.55;1.00;;;26.30;43.70;;;;;;4969610;28;20035;-71
2023/06/29 10:38:42;;;;;;;1.88;1.15;;;26.30;43.70;;;;;;4977088;28;20047;-71
2023/06/29 10:41:26;;;;;;;1.10;0.90;;;26.30;43.70;;;;;;4961255;28;20491;-72
2023/06/29 10:44:01;;;;;;;1.60;1.10;;;26.30;43.70;;;;;;4981205;28;20027;-72
2023/06/29 10:46:46;;;;;;;0.98;0.82;;;26.30;43.70;;;;;;4980087;28;20051;-71
2023/06/29 10:49:26;;;;;;;0.98;0.80;;;26.30;43.70;;;;;;4981747;28;20531;-71
2023/06/29 10:52:00;;;;;;;1.17;0.93;;;26.30;43.70;;;;;;4977824;28;20395;-71
2023/06/29 10:54:27;;;;;;;1.23;0.95;;;26.30;43.60;;;;;;4979935;28;20085;-72
2023/06/29 10:57:01;;;;;;;1.75;1.13;;;26.30;43.70;;;;;;4968981;28;20030;-68
2023/06/29 10:59:28;;;;;;;1.65;1.10;;;26.30;43.60;;;;;;4979562;28;20033;-68
2023/06/29 11:01:54;;;;;;;1.65;1.20;;;26.30;43.60;;;;;;4961511;28;20035;-73
2023/06/29 11:04:21;;;;;;;1.50;1.10;;;26.30;43.60;;;;;;4981367;28;20026;-68
2023/06/29 11:06:47;;;;;;;1.52;1.10;;;26.40;43.60;;;;;;4979321;28;20194;-68
2023/06/29 11:09:14;;;;;;;1.30;1.00;;;26.40;43.60;;;;;;4975427;28;20142;-69
2023/06/29 11:11:41;;;;;;;1.45;1.15;;;26.40;43.60;;;;;;4970580;28;20038;-69
2023/06/29 11:14:10;;;;;;;1.73;1.10;;;26.40;43.60;;;;;;4971268;28;20030;-68
2023/06/29 11:16:37;;;;;;;1.98;1.20;;;26.40;43.60;;;;;;4964195;28;20030;-71
2023/06/29 11:19:03;;;;;;;1.23;1.02;;;26.40;43.60;;;;;;4965887;28;20027;-68
2023/06/29 11:21:29;;;;;;;1.50;1.00;;;26.40;43.60;;;;;;4983115;28;20481;-69
2023/06/29 11:23:55;;;;;;;1.65;0.90;;;26.40;43.60;;;;;;4980863;28;20104;-68
2023/06/29 11:26:21;;;;;;;1.40;1.00;;;26.40;43.50;;;;;;4964477;28;20148;-70
2023/06/29 11:28:51;;;;;;;1.13;0.90;;;26.50;43.60;;;;;;4964514;28;20712;-70
2023/06/29 11:31:17;;;;;;;1.90;0.90;;;26.50;43.60;;;;;;4980200;28;20089;-72
2023/06/29 11:33:53;;;;;;;1.30;0.90;;;26.50;43.60;;;;;;4979726;28;20035;-70
2023/06/29 11:36:33;;;;;;;1.17;0.90;;;26.50;43.70;;;;;;4980359;28;20037;-69
2023/06/29 11:39:08;;;;;;;1.15;0.90;;;26.50;43.70;;;;;;4978163;28;20038;-68
2023/06/29 11:41:38;;;;;;;0.88;0.82;;;26.50;43.60;;;;;;4983009;28;20033;-68
2023/06/29 11:44:04;;;;;;;1.10;0.90;;;26.50;43.60;;;;;;4966612;28;20397;-68
2023/06/29 11:46:36;;;;;;;1.08;0.80;;;26.50;43.60;;;;;;4982609;28;20089;-71
2023/06/29 11:49:05;;;;;;;2.15;0.95;;;26.50;43.60;;;;;;4987436;28;20045;-71
2023/06/29 11:51:38;;;;;;;1.00;0.90;;;26.50;43.70;;;;;;4981382;28;20061;-71
2023/06/29 11:54:05;;;;;;;0.98;0.82;;;26.50;43.70;;;;;;4963950;28;20038;-72
2023/06/29 11:56:36;;;;;;;1.15;0.80;;;26.50;43.90;;;;;;4982345;28;20041;-70
2023/06/29 11:59:06;;;;;;;1.30;0.80;;;26.50;43.60;;;;;;4982536;28;20033;-70
2023/06/29 12:01:32;;;;;;;1.25;1.00;;;26.50;43.60;;;;;;4982319;28;20095;-71
2023/06/29 12:03:58;;;;;;;0.93;0.80;;;26.50;43.50;;;;;;4981797;28;20174;-71
2023/06/29 12:06:24;;;;;;;1.20;0.90;;;26.50;43.50;;;;;;4983382;28;20030;-70
2023/06/29 12:08:52;;;;;;;1.15;0.80;;;26.50;43.60;;;;;;4981123;28;20018;-70
2023/06/29 12:11:19;;;;;;;1.02;0.90;;;26.60;43.70;;;;;;4982331;28;20035;-63
2023/06/29 12:13:48;;;;;;;1.23;0.95;;;26.50;43.60;;;;;;4981746;28;20030;-63
2023/06/29 12:16:17;;;;;;;;;;;26.60;43.70;;;;;;4982279;28;20053;-63
2023/06/29 12:18:43;;;;;;;1.05;0.82;;;26.60;43.70;;;;;;4983319;28;19958;-62
2023/06/29 12:21:09;;;;;;;1.38;0.93;;;26.60;43.70;;;;;;4981762;28;20117;-63
2023/06/29 12:23:34;;;;;;;1.48;0.90;;;26.60;43.70;;;;;;4980739;28;20019;-63
2023/06/29 12:26:00;;;;;;;1.98;0.82;;;26.60;43.80;;;;;;4969178;28;20027;-64
2023/06/29 12:28:26;;;;;;;1.20;0.80;;;26.60;43.70;;;;;;4981449;28;20039;-63
2023/06/29 12:30:51;;;;;;;1.23;0.90;;;26.60;43.70;;;;;;4982028;28;20038;-64
2023/06/29 12:33:17;;;;;;;1.15;0.90;;;26.60;43.70;;;;;;4981884;28;20030;-64
2023/06/29 12:35:43;;;;;;;1.30;0.80;;;26.60;43.70;;;;;;4981198;28;20382;-62
2023/06/29 12:38:08;;;;;;;1.15;0.98;;;26.60;43.70;;;;;;4979348;28;20027;-63
2023/06/29 12:40:34;;;;;;;1.25;0.90;;;26.70;43.70;;;;;;4980616;28;20062;-62
2023/06/29 12:43:00;;;;;;;0.95;0.75;;;26.60;43.70;;;;;;4967971;28;20033;-61
2023/06/29 12:45:27;;;;;;;0.80;0.80;;;26.70;43.70;;;;;;4982505;28;20031;-61